x

9410230 - La Jolla, Ca (ljac1) Weather Station

2:54 - Sun 11th Dec 2016 All times are PST. -8 hours from GMT.

  • Wind
    2mph, 5mph gusts
  • Sea Temp 60°f
  • Luft Temp 62°f
  • Sea Pressure 1019.6mb
  • 9410230 - La Jolla, Ca
  • 9410230 - La Jolla, Ca

More Historic Weather Station data

Upgrade to MSW Pro to gain access to the past 30 days of data for over 8000 Wavebouys and Weather Stations around the globe.

Join Pro

Comparision Forecast

View Surf forecast
   
So 12/11 2:54 2 5 mph 1019.6mb 60f 62f
2:48 3 6 mph 1019.6mb 60f 62f
2:42 5
mph
1019.7mb 60f 62f
2:36 3 5 mph 1019.7mb 60f 62f
2:30 2
mph
1019.7mb 60f 62f
2:24  -  1 mph 1019.9mb 60f 62f
2:18  -  mph 1020mb 60f 62f
2:12  -  1 mph 1020mb 60f 62f
2:06  -  2 mph 1020mb 60f 62f
2:00 1 2 mph 1020.1mb 60f 62f
1:54  -  1 mph 1020.1mb 60f 62f
1:48  -  2 mph 1020.2mb 60f 62f
1:42 1 2 mph 1020.1mb 60f 62f
1:36  -  5 mph 1020.1mb 60f 62f
1:30 3 6 mph 1019.9mb 60f 62f
1:24 1 5 mph 1019.9mb 60f 62f
1:18 2 3 mph 1019.9mb 61f 62f
1:12 3 6 mph 1020mb 61f 62f
1:06 5 6 mph 1020mb 61f 62f
1:00 3 5 mph 1020.3mb 61f 62f
12:54 3 5 mph 1020.3mb 61f 62f
12:48 2 6 mph 1020.2mb 61f 62f
12:42 2 5 mph 1020.2mb 61f 62f
12:36  -  2 mph 1020.3mb 61f 62f
12:30 1 3 mph 1020.3mb 61f 62f
12:24 2 6 mph 1020.2mb 61f 62f
12:18 3 6 mph 1020.2mb 61f 62f
12:12 5 6 mph 1020.3mb 61f 62f
12:06 6 7 mph 1020.3mb 61f 62f
12:00 6 7 mph 1020.3mb 61f 62f
Sa 12/10 11:54 3 6 mph 1020.4mb 61f 62f
11:48 3 5 mph 1020.6mb 61f 62f
11:42 1 3 mph 1020.7mb 60f 62f
11:36 3 5 mph 1020.8mb 60f 62f
11:30 2 3 mph 1020.9mb 60f 62f
11:24 3
mph
1020.8mb 60f 63f
11:18 2 3 mph 1020.8mb 61f 63f
11:12 2
mph
1020.8mb 61f 63f
11:06 1 2 mph 1020.8mb 61f 63f
11:00  -  1 mph 1020.9mb 60f 63f
10:54 1
mph
1021.1mb 60f 63f
10:48  -  mph 1021.1mb 60f -
10:42  -  mph 1021mb 60f -
10:36  -  mph 1021.1mb 61f -
10:30 2 3 mph 1021mb 61f 63f
10:24 3
mph
1021.1mb 61f 63f
10:18 2 5 mph 1021.1mb 61f 63f
10:12 3 5 mph 1021.1mb 60f 63f
10:06 5 6 mph 1021mb 60f 64f
10:00 3 5 mph 1020.9mb 60f 64f
9:54 3 6 mph 1020.9mb 60f 64f
9:48 5 6 mph 1020.9mb 60f 64f
9:42 3
mph
1020.8mb 60f 64f
9:36 3
mph
1020.8mb 60f 64f
9:30 2 3 mph 1020.6mb 60f 64f
9:24 2 3 mph 1020.6mb 60f 64f
9:18 2 3 mph 1020.5mb 60f 64f
9:12 5
mph
1020.5mb 60f 64f
9:06 5
mph
1020.5mb 60f 64f
9:00 6
mph
1020.5mb 60f 64f
8:54 5 6 mph 1020.5mb 60f 64f
8:48 6
mph
1020.7mb 60f 64f
8:42 3 5 mph 1020.7mb 60f 64f
8:36 3 6 mph 1020.7mb 60f 64f
8:30 5 6 mph 1020.6mb 60f 64f
8:24 5 7 mph 1020.6mb 60f 64f
8:18 5 6 mph 1020.5mb 60f 64f
8:12 5 6 mph 1020.4mb 60f 63f
8:06 3 5 mph 1020.5mb 60f 64f
8:00 5 6 mph 1020.6mb 60f 64f
7:54 5 6 mph 1020.6mb 60f 64f
7:48 5 7 mph 1020.5mb 60f 63f
7:42 6 7 mph 1020.5mb 60f 63f
7:36 6 7 mph 1020.4mb 59f 63f
7:30 5 6 mph 1020.3mb 59f 63f
7:24 3 7 mph 1020.2mb 60f 63f
7:18 3 7 mph 1020.2mb 60f 63f
7:12 5 7 mph 1020mb 60f 63f
7:06 5 6 mph 1019.9mb 60f 63f
7:00 5 6 mph 1019.9mb 60f 63f
6:54 6
mph
1019.9mb 60f 63f
6:48 6 8 mph 1019.8mb 60f 63f
6:42 7 8 mph 1019.8mb 59f 63f
6:36 6 8 mph 1019.7mb 60f 63f
6:30 8 11 mph 1019.8mb 60f 63f
6:24 8 10 mph 1019.6mb 60f 63f
6:18 7 9 mph 1019.5mb 60f 63f
6:12 8 10 mph 1019.4mb 60f 63f
6:06 7 11 mph 1019.5mb 60f 63f
6:00 8 11 mph 1019.4mb 60f 63f
5:54 9 11 mph 1019.4mb 60f 63f
5:48 8 9 mph 1019.4mb 60f 63f
5:42 8 13 mph 1019.4mb 60f 63f
5:36 11 13 mph 1019.4mb 60f 63f
5:30 9 11 mph 1019.4mb 60f 63f
5:24 10 11 mph 1019.3mb 60f 63f
5:18 7 9 mph 1019.3mb 60f 63f
5:12 7 13 mph 1019.3mb 60f 63f
5:06 6 8 mph 1019.4mb 60f 63f
5:00 6 7 mph 1019.4mb 60f 63f
4:54 6 7 mph 1019.5mb 60f 63f
4:48 5 6 mph 1019.6mb 60f 63f
4:42 5
mph
1019.4mb 60f 63f
4:36 5
mph
1019.3mb 60f 63f
4:30 3
mph
1019.3mb 60f 63f
4:24 3 5 mph 1019.4mb 60f 63f
4:18 5 6 mph 1019.5mb 60f 63f
4:12 6
mph
1019.6mb 60f 63f
4:06 6 7 mph 1019.6mb 60f 64f
4:00 6 7 mph 1019.6mb 60f 64f
3:54 6
mph
1019.6mb 60f 64f
3:48 5 6 mph 1019.5mb 60f 64f
3:42 7 11 mph 1019.6mb 60f 63f
3:36 7 9 mph 1019.5mb 60f 63f
3:30 9 11 mph 1019.5mb 60f 63f
3:24 7 8 mph 1019.4mb 60f 63f
3:18 6 7 mph 1019.3mb 60f 63f
3:12 6 10 mph 1019.4mb 60f 63f
3:06 7 9 mph 1019.5mb 60f 63f
3:00 8 9 mph 1019.5mb 60f 63f
2:54 6 7 mph 1019.6mb 60f 63f
2:48 6 7 mph 1019.7mb 60f 64f
2:42 7 8 mph 1019.8mb 60f 63f
2:36 7 8 mph 1019.8mb 61f 64f
2:30 7
mph
1019.8mb 60f 63f
2:24 7 9 mph 1019.9mb 61f 63f
2:18 7 8 mph 1019.9mb 61f 64f
2:12 8
mph
1020mb 60f 64f
2:06 8
mph
1019.9mb 60f 64f
2:00 8 9 mph 1019.9mb 60f 63f
1:54 8 10 mph 1019.9mb 60f 64f
1:48 9 13 mph 1019.9mb 60f 64f
1:42 7
mph
1019.8mb 60f 64f
1:36 6 7 mph 1019.8mb 61f 64f
1:30 6
mph
1019.8mb 60f 64f
1:24 5 8 mph 1020mb 60f 64f
1:18 7 10 mph 1020.2mb 60f 64f
1:12 8
mph
1020.2mb 60f 64f
1:06 7
mph
1020.3mb 61f 64f
1:00 6 8 mph 1020.3mb 61f 64f
12:54 6 7 mph 1020.4mb 61f 64f
12:48 6
mph
1020.5mb 61f 64f
12:42 5 7 mph 1020.5mb 61f 64f
12:36 6 7 mph 1020.6mb 61f 64f
12:30 7 10 mph 1020.7mb 61f 64f
12:24 9 11 mph 1020.8mb 61f 64f
12:18 8 10 mph 1020.9mb 61f 64f
12:12 7 9 mph 1021mb 61f 64f
12:06 6 7 mph 1021.1mb 61f 64f
12:00 8 9 mph 1021.2mb 60f 65f
11:54 7 8 mph 1021.3mb 60f 65f
11:48 6 7 mph 1021mb 60f 65f
11:42 5 6 mph 1021mb 60f 65f
11:36 5 7 mph 1021mb 60f 65f
11:30 5 6 mph 1021.1mb 60f 65f
11:24 3 5 mph 1021.2mb 60f 65f
11:18 3
mph
1021.4mb 60f 64f
11:12 3 10 mph 1021.6mb 60f 64f
11:06 6 9 mph 1021.7mb 60f 64f
11:00 2 5 mph 1021.7mb 60f 65f
10:54 2 6 mph 1021.9mb 60f 65f
10:48 5 7 mph 1022mb 60f 64f
10:42 3 6 mph 1022.3mb 60f 64f
10:36 3 5 mph 1022.4mb 60f 64f
10:30  -  5 mph 1022.6mb 60f 64f
10:24 3 5 mph 1022.5mb 60f 64f
10:18 1 3 mph 1022.5mb 60f 64f
10:12 2 3 mph 1022.6mb 60f 64f
10:06 2 3 mph 1022.7mb 60f 63f
10:00 2 3 mph 1022.7mb 60f 63f
9:54 3 7 mph 1022.9mb 60f 63f
9:48 6 8 mph 1022.8mb 60f 62f
9:42 6 8 mph 1022.8mb 60f 62f
9:36 6 10 mph 1022.7mb 60f 62f
9:30 7 9 mph 1022.6mb 60f 62f
9:24 7 9 mph 1022.7mb 60f 62f
9:18 7 10 mph 1022.6mb 60f 62f
9:12 6 9 mph 1022.6mb 60f 62f
9:06 7 9 mph 1022.6mb 60f 62f
8:54 6 8 mph 1022.6mb 60f 61f
8:48 8
mph
1022.6mb 60f 61f
8:42 6 7 mph 1022.5mb 60f 61f
8:36 7 8 mph 1022.4mb 60f 61f
8:30 6 9 mph 1022.3mb 60f 61f
8:24 5 8 mph 1022.3mb 60f 61f
8:18 6 8 mph 1022.2mb 60f 61f
8:12 6 7 mph 1022.2mb 60f 61f
8:06 5 7 mph 1022.3mb 60f 61f
8:00 5 9 mph 1022.2mb 60f 61f
7:54 8 9 mph 1022mb 60f 61f
7:48 9 10 mph 1021.8mb 60f 61f
7:42 7 8 mph 1021.8mb 60f 61f
7:36 6 8 mph 1021.7mb 60f 61f
7:30 6 8 mph 1021.6mb 60f 61f
7:24 5 7 mph 1021.6mb 60f 61f
7:18 6 7 mph 1021.6mb 60f 61f
7:12 6 7 mph 1021.5mb 60f 61f
7:06 6 7 mph 1021.5mb 60f 61f
7:00 5 6 mph 1021.5mb 60f 61f
6:54 5 6 mph 1021.4mb 60f 61f
6:48 5 6 mph 1021.4mb 60f 61f
6:42 2 5 mph 1021.3mb 60f 62f
6:36 1 6 mph 1021.3mb 60f 61f
6:30 3 6 mph 1021.1mb 60f 61f
6:24 3 5 mph 1021.2mb 60f 61f
6:18 5 6 mph 1021.3mb 60f 61f
6:12 5 6 mph 1021.2mb 60f 61f
6:06 6 7 mph 1021.4mb 60f 61f
6:00 6
mph
1021.6mb 60f 61f
5:54 6
mph
1021.6mb 60f 61f
5:48 6 7 mph 1021.5mb 60f 61f
5:42 6 7 mph 1021.5mb 60f 61f
5:36 5 6 mph 1021.5mb 60f 61f
5:30 6 7 mph 1021.5mb 60f 61f
5:24 6 7 mph 1021.5mb 60f 62f
5:18 5 6 mph 1021.5mb 60f 62f
5:12 7
mph
1021.5mb 60f 62f
5:06 6
mph
1021.6mb 60f 62f
5:00 5 6 mph 1021.5mb 60f 62f
4:54 5 7 mph 1021.5mb 60f 62f
4:48 6 8 mph 1021.5mb 60f 62f
4:42 5 8 mph 1021.4mb 60f 62f
4:36 7 9 mph 1021.5mb 60f 62f
4:30 8 10 mph 1021.5mb 60f 62f
4:24 6 8 mph 1021.4mb 60f 62f
4:18 6 9 mph 1021.3mb 60f 62f
4:12 6 8 mph 1021.4mb 60f 62f
4:06 6 8 mph 1021.3mb 60f 62f
4:00 6 7 mph 1021.2mb 60f 62f
3:54 6 7 mph 1021.1mb 60f 62f
3:48 6 8 mph 1021mb 60f 62f
3:42 7 8 mph 1021.1mb 60f 62f
3:36 6 7 mph 1020.9mb 60f 62f
3:30 2 3 mph 1020.8mb 60f 62f
3:24  -  2 mph 1020.8mb 60f 62f
3:18 2 3 mph 1020.7mb 60f 62f
3:12 2 3 mph 1020.7mb 60f 62f
3:06 1 2 mph 1020.8mb 60f 62f
3:00 2 5 mph 1020.9mb 60f 62f
2:54 1 3 mph 1021mb 60f 62f
2:48  -  3 mph 1021.1mb 60f 63f
2:42 3
mph
1021.1mb 60f 63f
2:36 3 6 mph 1021.3mb 60f 63f
2:30 6 7 mph 1021.3mb 60f 63f
2:24 5
mph
1021.4mb 60f 63f
2:18 5 6 mph 1021.3mb 60f 63f
2:12 3 5 mph 1021.2mb 60f 63f
2:06 3 6 mph 1021.2mb 60f 63f
2:00 5 6 mph 1021.2mb 61f 63f
1:54 2 5 mph 1021.2mb 61f 63f
1:48 5
mph
1021.4mb 61f 63f
1:42 5 6 mph 1021.5mb 61f 63f
1:36 3 6 mph 1021.6mb 61f 63f
1:30 3 5 mph 1021.6mb 61f 63f
1:24 3 5 mph 1021.8mb 61f 63f
1:18 5 6 mph 1021.8mb 61f 63f
1:12 5
mph
1021.8mb 61f 63f
1:06 5
mph
1021.8mb 61f 63f
1:00 2 3 mph 1021.9mb 61f 63f
12:54 2
mph
1022mb 61f 63f
12:48 2 3 mph 1021.9mb 61f 63f
12:42 2 3 mph 1021.9mb 61f 63f
12:36 2 7 mph 1021.7mb 61f 63f
12:30 5 6 mph 1021.6mb 61f 63f
12:24 3 5 mph 1021.7mb 61f 63f
12:18 5 6 mph 1021.6mb 61f 63f
12:12 5 6 mph 1021.6mb 61f 63f
12:06 3 6 mph 1021.8mb 61f 63f
12:00 5
mph
1021.9mb 61f 63f
Fr 12/09 11:54 3 5 mph 1022mb 61f 63f
11:48 2 5 mph 1022.1mb 61f 63f
11:42 3 5 mph 1022.3mb 61f 63f
11:36 3
mph
1022.4mb 61f 63f
11:30 2 3 mph 1022.4mb 61f 63f
11:24 3
mph
1022.5mb 61f 63f
11:18 3
mph
1022.5mb 61f 63f
11:12 3
mph
1022.6mb 61f 63f
11:06 3 5 mph 1022.6mb 61f 63f
11:00 3 5 mph 1022.6mb 61f 63f
10:54 5 6 mph 1022.6mb 61f 63f
10:48 6 9 mph 1022.7mb 61f 63f
10:42 6 7 mph 1022.7mb 61f 63f
10:36 7 8 mph 1022.7mb 61f 63f
10:30 7 9 mph 1022.7mb 61f 63f
10:24 7 8 mph 1022.6mb 61f 63f
10:18 6 8 mph 1022.5mb 61f 63f
10:12 5 7 mph 1022.5mb 61f 63f
10:06 3 6 mph 1022.5mb 61f 63f
10:00 6 7 mph 1022.5mb 61f 63f
9:54 5 6 mph 1022.5mb 61f 63f
9:48 3 6 mph 1022.4mb - -
9:42 3 5 mph 1022.2mb - -
9:36 2 3 mph 1022.1mb - -
9:30 1
mph
1022mb 61f 63f
9:24  -  1 mph 1022.1mb 61f 63f
9:18  -  3 mph 1022mb 61f 63f
9:12 2 5 mph 1022.2mb 61f 63f
9:06 2
mph
1022.1mb 61f 63f
9:00 2 3 mph 1022.1mb 61f 63f
8:54 3 5 mph 1022.1mb 61f 63f
8:48 5
mph
1022.2mb 61f 63f
8:42 5 6 mph 1022.2mb 61f 63f
8:36 5 8 mph 1022.2mb 61f 63f
8:30 8 13 mph 1022.3mb 60f 63f
8:24 10 13 mph 1022.3mb 60f 63f
8:18 6 7 mph 1022.2mb 61f 63f
8:12 5 6 mph 1022mb 61f 63f
8:06 5 9 mph 1021.9mb 61f 63f
8:00 7 9 mph 1021.8mb 61f 63f
7:54 5 8 mph 1021.8mb 61f 63f
7:48 7 8 mph 1021.7mb 60f 63f
7:42 7 9 mph 1021.6mb 60f 63f
7:36 6
mph
1021.6mb 60f 63f
7:30 5 6 mph 1021.6mb 60f 63f
7:24 6 8 mph 1021.6mb 60f 63f
7:18 7 8 mph 1021.6mb 60f 63f
7:12 6 8 mph 1021.6mb 61f 63f
7:06 7 8 mph 1021.6mb 61f 63f
7:00 7
mph
1021.5mb 60f 63f
6:54 7 9 mph 1021.5mb 60f 63f
6:48 9 10 mph 1021.6mb 60f 63f
6:42 8 9 mph 1021.6mb 60f 63f
6:36 9 13 mph 1021.6mb 60f 62f
6:30 8 11 mph 1021.5mb 60f 63f
6:24 10 11 mph 1021.5mb 60f 63f
6:18 8 10 mph 1021.6mb 61f 63f
6:12 7 9 mph 1021.6mb 61f 63f
6:06 9 10 mph 1021.6mb 61f 63f
6:00 8 9 mph 1021.6mb 60f 63f
5:54 8 9 mph 1021.6mb 60f 63f
5:48 9 11 mph 1021.5mb 61f 63f
5:42 10 11 mph 1021.5mb 60f 63f
5:36 9 10 mph 1021.5mb 61f 63f
5:30 8 10 mph 1021.4mb 60f 63f
5:24 9 13 mph 1021.3mb 60f 63f
5:18 10 11 mph 1021.3mb 60f 63f
5:12 10 13 mph 1021.2mb 60f 63f
5:06 11 13 mph 1021.2mb 60f 63f
5:00 13 14 mph 1021.2mb 60f 63f
4:54 9 11 mph 1021.2mb 60f 63f
4:48 6 7 mph 1021.2mb 60f 63f
4:42 6
mph
1021.3mb 60f 63f
4:36 5 6 mph 1021.3mb 60f 63f
4:30 5 6 mph 1021.3mb 60f 63f
4:24 5 6 mph 1021.3mb 61f 63f
4:18 5 6 mph 1021.4mb 61f 63f
4:12 6
mph
1021.4mb 61f 63f
4:06 6
mph
1021.5mb 61f 63f
4:00 6 7 mph 1021.5mb 61f 63f
3:54 6 7 mph 1021.6mb 61f 63f
3:48 6
mph
1021.7mb 61f 63f
3:42 5 6 mph 1021.7mb 61f 63f
3:36 6 7 mph 1021.8mb 61f 62f
3:30 6 7 mph 1021.8mb 61f 62f
3:24 6 7 mph 1021.9mb 61f 63f
3:18 6 7 mph 1022mb 61f 63f
3:12 6 7 mph 1021.9mb 61f 62f
3:06 6 7 mph 1022mb 61f 63f
3:00 7 8 mph 1022.1mb 61f 63f
2:54 7
mph
1022.1mb 61f 63f
2:48 6 8 mph 1022.1mb 61f 62f
2:42 7
mph
1022.1mb 61f 63f
2:36 6 7 mph 1022.2mb 61f 62f
2:30 6
mph
1022.1mb 61f 62f
2:24 5 7 mph 1022.1mb 61f 62f
2:18 6 7 mph 1022mb 61f 62f
2:12 6
mph
1022.1mb 61f 62f
2:06 6
mph
1022.1mb 61f 62f
2:00 6
mph
1022.2mb 61f 62f
1:54 5 6 mph 1022.1mb 61f 62f
1:48 5 6 mph 1022.1mb 61f 62f
1:42 6
mph
1022.2mb 61f 62f
1:36 5 6 mph 1022.4mb 61f 62f
1:30 6
mph
1022.5mb 61f 62f
1:24 5 6 mph 1022.6mb 61f 62f
1:18 5 6 mph 1022.6mb 61f 62f
1:12 5 6 mph 1022.7mb 61f 62f
1:06 6
mph
1022.7mb 61f 62f
1:00 5 6 mph 1022.8mb 61f 62f
12:54 6 7 mph 1022.9mb 61f 62f
12:48 6 7 mph 1022.9mb 61f 62f
12:42 6 7 mph 1023.1mb 60f 62f
12:36 6
mph
1023.3mb 60f 62f
12:30 5 8 mph 1023.3mb 60f 62f
12:24 5 7 mph 1023.2mb 60f 62f
12:18 3
mph
1023.3mb 60f 62f
12:12 2 5 mph 1023.5mb 60f 62f
12:06 3 5 mph 1023.7mb 60f 62f
12:00 3 5 mph 1023.8mb 60f 63f
11:54 3 5 mph 1023.8mb 60f 63f
11:48 3 5 mph 1023.9mb 60f 63f
11:42 3 6 mph 1024mb 60f 63f
11:36 5 6 mph 1024.1mb 60f 63f
11:30 3 5 mph 1024.1mb 60f 64f
11:24 3 5 mph 1024.2mb 60f 64f
11:18 3 5 mph 1024.3mb 60f 64f
11:12 3
mph
1024.4mb 60f 64f
11:06 3
mph
1024.4mb 60f 65f
11:00 2 3 mph 1024.5mb 60f 65f
10:54 2 3 mph 1024.6mb 60f 65f
10:48 2
mph
1024.7mb 60f 65f
10:42 2 3 mph 1024.8mb 60f 64f
10:36 2
mph
1024.9mb 60f 64f
10:30 1 2 mph 1025mb 60f 64f
10:24 2
mph
1025.1mb 60f 63f
10:18 2
mph
1025.2mb 60f 64f
10:12 2
mph
1025.3mb 60f 64f
10:06 2
mph
1025.3mb 60f 64f
10:00 2 3 mph 1025.4mb 60f 64f
9:54 3
mph
1025.4mb 60f 63f
9:48 5
mph
1025.5mb 60f 64f
9:42 3
mph
1025.5mb 60f 64f
9:36 2
mph
1025.4mb 60f 64f
9:30 2
mph
1025.3mb 60f 64f
9:24 2
mph
1025.3mb 60f 64f
9:18 1
mph
1025.2mb 60f 64f
9:12 1 2 mph 1025.3mb 60f 64f
9:06  -  1 mph 1025.3mb 60f 65f
9:00  -  1 mph 1025.3mb 60f 64f
8:54  -  1 mph 1025.2mb 60f 64f
8:48 1 2 mph 1025.2mb 60f 64f
8:42  -  1 mph 1025.2mb 60f 65f
8:36  -  1 mph 1025.1mb 60f 64f
8:30  -  1 mph 1025.1mb 60f 64f
8:24  -  1 mph 1025mb 60f 63f
8:18  -  1 mph 1025mb 60f 63f
8:12  -  1 mph 1024.8mb 60f 63f
8:06 1 2 mph 1024.7mb 60f 62f
8:00 2
mph
1024.6mb 60f 61f
7:54 1 2 mph 1024.5mb 60f 61f
7:48 2
mph
1024.4mb 60f 61f
7:42  -  1 mph 1024.4mb 60f 61f
7:36  -  1 mph 1024.4mb 60f 61f
7:30  -  3 mph 1024.4mb 60f 60f
7:24  -  2 mph 1024.4mb 60f 60f
7:18 1 3 mph 1024.4mb 60f 59f
7:12 1 3 mph 1024.4mb 60f 58f
7:06 3 5 mph 1024.4mb 60f 58f
7:00 2 3 mph 1024.5mb 60f 58f
6:54  -  2 mph 1024.4mb 60f 58f
6:48  -  2 mph 1024.4mb 60f 58f
6:42 1 2 mph 1024.4mb 60f 58f
6:36 2
mph
1024.4mb 60f 58f
6:30 1 2 mph 1024.4mb 60f 58f
6:24 2
mph
1024.3mb 60f 58f
6:18  -  2 mph 1024.2mb 60f 58f
6:12 1 2 mph 1024.1mb 60f 58f
6:06 2
mph
1024.2mb 60f 58f
6:00 1 2 mph 1024.1mb 60f 58f
5:54  -  1 mph 1024.2mb 60f 58f
5:48  -  1 mph 1024.1mb 59f 58f
5:42  -  1 mph 1024mb 59f 58f
5:36  -  1 mph 1024mb 59f 58f
5:30 1 2 mph 1023.8mb 59f 58f
5:24 1 2 mph 1023.8mb 59f 58f
5:18 2
mph
1023.8mb 59f 58f
5:12 1 2 mph 1023.8mb 60f 59f
5:06 1 2 mph 1024mb 60f 59f
5:00 2
mph
1024.1mb 60f 59f
4:54 1
mph
1024.1mb 60f 59f
4:48 1 2 mph 1024.1mb 60f 58f
4:42  -  1 mph 1024.2mb 60f 58f
4:36  -  1 mph 1024.2mb 60f 58f
4:30  -  1 mph 1024.2mb 60f 58f
4:24 1 2 mph 1024.3mb 60f 59f
4:18 1 2 mph 1024.3mb 60f 59f
4:12 1 3 mph 1024.3mb 60f 59f
4:06 2
mph
1024.3mb 60f 59f
4:00 1
mph
1024.4mb 60f 59f
3:54 1
mph
1024.4mb 60f 59f
3:48  -  1 mph 1024.4mb 60f 58f
3:42  -  1 mph 1024.5mb 60f 58f
3:36  -  1 mph 1024.5mb 60f 58f
3:30  -  1 mph 1024.5mb 60f 58f
3:24 1
mph
1024.5mb 60f 59f
3:18  -  1 mph 1024.5mb 60f 59f
3:12  -  mph 1024.5mb 60f 59f
3:06  -  mph 1024.6mb 60f 59f
3:00  -  1 mph 1024.6mb 60f 59f
2:54  -  1 mph 1024.7mb 60f 59f
2:48  -  1 mph 1024.7mb 60f 59f
2:42  -  1 mph 1024.6mb 60f 59f
2:36  -  1 mph 1024.7mb 60f 59f
2:30  -  2 mph 1024.7mb 60f 59f
2:24 1 2 mph 1024.8mb 60f 59f
2:18  -  1 mph 1024.9mb 60f 59f
2:12  -  1 mph 1024.9mb 60f 60f
2:06  -  2 mph 1024.9mb 60f 60f
2:00 1 2 mph 1025mb 60f 60f
1:54 2
mph
1025mb 60f 60f
1:48  -  2 mph 1025mb 60f 60f
1:42 1
mph
1024.9mb 60f 60f
1:36  -  1 mph 1024.9mb 60f 60f
1:30  -  1 mph 1024.8mb 60f 59f
1:24  -  1 mph 1024.8mb 60f 60f
1:18 1 2 mph 1024.7mb 60f 60f
1:12  -  1 mph 1024.7mb 60f 60f
1:06  -  mph 1024.6mb 60f 60f
1:00  -  1 mph 1024.6mb 60f 60f
12:54  -  1 mph 1024.5mb 60f 60f
12:48  -  1 mph 1024.5mb 60f 60f
12:42 1 2 mph 1024.5mb 60f 59f
12:36  -  mph 1024.6mb 60f 59f
12:30  -  1 mph 1024.6mb 60f 59f
12:24  -  2 mph 1024.7mb 60f 59f
12:18  -  1 mph 1024.7mb 60f 59f
12:12  -  1 mph 1024.8mb 60f 59f
12:06 1
mph
1024.8mb 60f 60f
12:00  -  1 mph 1024.8mb 60f 60f
Do 12/08 11:54  -  1 mph 1024.8mb 60f 60f
11:48  -  2 mph 1024.9mb 60f 60f
11:42 2
mph
1024.8mb 60f 60f
11:36 2
mph
1024.9mb 60f 60f
11:30  -  2 mph 1025mb 60f 60f
11:24 2 3 mph 1025mb 60f 60f
11:18 2 3 mph 1025mb 60f 60f
11:12  -  2 mph 1025.1mb 60f 60f
11:06  -  1 mph 1025.1mb 60f 60f
11:00  -  2 mph 1025.1mb 60f 61f
10:54  -  2 mph 1025.1mb 60f 61f
10:48 2 3 mph 1025.1mb 60f 62f
10:42 2 3 mph 1025.2mb 60f 61f
10:36 3
mph
1025.3mb 60f 61f
10:30 2 3 mph 1025.3mb 60f 61f
10:24 2 3 mph 1025.3mb 60f 61f
10:18 2
mph
1025.3mb 60f 61f
10:12  -  1 mph 1025.3mb 60f 61f
10:06  -  1 mph 1025.2mb 60f 61f
10:00  -  1 mph 1025.1mb 60f 61f
9:54  -  2 mph 1025.1mb 60f 61f
9:48 2
mph
1025mb - -
9:42 1 2 mph 1025mb - -
9:36 2
mph
1024.9mb - -
9:30  -  1 mph 1024.9mb 60f 61f
9:24 1 2 mph 1024.9mb 60f 62f
9:18 2
mph
1024.7mb 60f 62f
9:12 2 3 mph 1024.6mb 60f 62f
9:06 2 3 mph 1024.7mb 60f 62f
9:00 3 5 mph 1024.7mb 60f 62f
8:54 3 5 mph 1024.7mb 60f 62f
8:48 5 6 mph 1024.6mb 60f 62f
8:42 3 5 mph 1024.6mb 60f 62f
8:36 3 5 mph 1024.5mb 61f 62f
8:30 3 5 mph 1024.5mb 61f 62f
8:24 5 6 mph 1024.3mb 61f 62f
8:18 3 5 mph 1024.3mb 61f 62f
8:12 3 5 mph 1024.2mb 61f 62f
8:06 3
mph
1024.2mb 61f 61f
8:00 5
mph
1024.2mb 61f 61f
7:54 5 6 mph 1024.2mb 61f 61f
7:48 5
mph
1024.2mb 61f 62f
7:42 5
mph
1024.2mb 60f 62f
7:36 3 5 mph 1024.2mb 60f 62f
7:30 5 6 mph 1024.2mb 60f 62f
7:24 3 5 mph 1024.2mb 60f 62f
7:18 3 6 mph 1024.1mb 60f 62f
7:12 5 6 mph 1024.1mb 60f 62f
7:06 5 6 mph 1024mb 60f 62f
7:00 5 7 mph 1024mb 60f 62f
6:54 5 6 mph 1024mb 60f 62f
6:48 3 5 mph 1023.9mb 60f 62f
6:42 3 7 mph 1023.7mb 60f 62f
6:36 6
mph
1023.8mb 60f 62f
6:30 5 6 mph 1023.8mb 60f 62f
6:24 5 6 mph 1023.7mb 60f 62f
6:18 3 5 mph 1023.7mb 60f 62f
6:12 5
mph
1023.6mb 60f 62f
6:06 3
mph
1023.6mb 60f 62f
6:00 3 5 mph 1023.7mb 60f 62f
5:54 5 6 mph 1023.7mb 60f 63f
5:48 5 7 mph 1023.6mb 60f 62f
5:42 7 8 mph 1023.7mb 60f 63f
5:36 7 8 mph 1023.7mb 60f 63f
5:30 7 8 mph 1023.7mb 60f 63f
5:24 7 8 mph 1023.6mb 60f 63f
5:18 7 8 mph 1023.5mb 61f 63f
5:12 7 8 mph 1023.4mb 60f 63f
5:06 7 9 mph 1023.4mb 60f 63f
5:00 8 9 mph 1023.3mb 60f 63f
4:54 8 10 mph 1023.3mb 60f 63f
4:48 8 10 mph 1023.4mb 60f 63f
4:42 10 11 mph 1023.3mb 60f 63f
4:36 10 11 mph 1023.3mb 60f 63f
4:30 9 10 mph 1023.2mb 60f 63f
4:24 8 10 mph 1023.2mb 60f 63f
4:18 9 10 mph 1023.2mb 60f 63f
4:12 8 10 mph 1023.3mb 60f 63f
4:06 8 9 mph 1023.2mb 60f 63f
4:00 8 9 mph 1023mb 60f 63f
3:54 8 9 mph 1023.1mb 60f 63f
3:48 8 9 mph 1023mb 60f 63f
3:42 8 9 mph 1023mb 60f 63f
3:36 9 10 mph 1023.1mb 60f 63f
3:30 9 10 mph 1023mb 60f 63f
3:24 8 10 mph 1022.9mb 60f 63f
3:18 9 10 mph 1022.9mb 60f 63f
3:12 9 10 mph 1022.9mb 60f 63f
3:06 9 10 mph 1022.9mb 60f 63f
3:00 9 11 mph 1022.9mb 60f 64f
2:54 9 10 mph 1022.9mb 60f 63f
2:48 9 10 mph 1022.9mb 60f 63f
2:42 9 11 mph 1022.9mb 60f 63f
2:36 10 11 mph 1023mb 60f 63f
2:30 7 9 mph 1023mb 60f 63f
2:24 7 8 mph 1023mb 60f 63f
2:18 7 8 mph 1023.1mb 60f 63f
2:12 7 8 mph 1023.1mb 60f 63f
2:06 7 8 mph 1023.2mb 60f 63f
2:00 6 8 mph 1023.1mb 60f 63f
1:54 7 8 mph 1023.2mb 60f 63f
1:48 8
mph
1023.2mb 60f 63f
1:42 8 9 mph 1023.3mb 60f 63f
1:36 7 8 mph 1023.4mb 60f 63f
1:30 7 9 mph 1023.5mb 61f 63f
1:24 7 9 mph 1023.5mb 61f 63f
1:18 7 9 mph 1023.5mb 60f 63f
1:12 7 8 mph 1023.5mb 60f 63f
1:06 6 7 mph 1023.4mb 60f 63f
1:00 7 8 mph 1023.5mb 60f 63f
12:54 6 8 mph 1023.5mb 60f 63f
12:48 3 5 mph 1023.5mb 60f 63f
12:42 3 6 mph 1023.5mb 60f 63f
12:36 6
mph
1023.6mb 60f 63f
12:30 5 6 mph 1023.5mb 60f 63f
12:24 2 3 mph 1023.4mb 60f 64f
12:18 2
mph
1023.5mb 60f 64f
12:12 2 3 mph 1023.5mb 60f 64f
12:06 2
mph
1023.5mb 60f 64f
12:00 1 2 mph 1023.6mb 60f 64f
11:54 2
mph
1023.7mb 60f 64f
11:48 2
mph
1023.7mb 60f 64f
11:42 2 3 mph 1023.8mb 60f 64f
11:36 2
mph
1023.9mb 60f 64f
11:30 2
mph
1023.9mb 60f 65f
11:24 2
mph
1024mb 60f 66f
11:18 1 3 mph 1024.1mb 60f 66f
11:12 2 3 mph 1024.3mb 60f 65f
11:06 1 2 mph 1024.3mb 60f 65f
11:00 2 3 mph 1024.4mb 60f 65f
10:54 2 3 mph 1024.6mb 60f 65f
10:48 2 3 mph 1024.7mb 60f 64f
10:42 2 3 mph 1024.6mb 60f 64f
10:36 2 3 mph 1024.6mb 60f 64f
10:30 3
mph
1024.8mb 60f 64f
10:24 2 3 mph 1024.8mb 60f 65f
10:18 2
mph
1024.8mb 60f 65f
10:12 1 2 mph 1024.7mb 60f 66f
10:06 1 2 mph 1024.7mb 60f 65f
10:00 2 3 mph 1024.7mb 60f 64f
9:54 2
mph
1024.6mb 60f 64f
9:48  -  2 mph 1024.6mb 60f 65f
9:42 2 3 mph 1024.6mb 60f 64f
9:36 2 5 mph 1024.7mb 60f 64f
9:30 2 3 mph 1024.6mb 60f 64f
9:24  -  2 mph 1024.4mb 60f 65f
9:18 1 2 mph 1024.4mb 60f 64f
9:12 1
mph
1024.3mb 60f 64f
9:06  -  1 mph 1024.3mb 60f 64f
9:00  -  1 mph 1024.2mb 60f 64f
8:54  -  1 mph 1024.1mb 60f 63f
8:48  -  1 mph 1024mb 60f 63f
8:42  -  2 mph 1023.9mb 60f 62f
8:36 2
mph
1023.9mb 60f 62f
8:30  -  2 mph 1023.8mb 60f 64f
8:24  -  1 mph 1023.8mb 60f 64f
8:18  -  3 mph 1023.8mb 60f 62f
8:12 2 3 mph 1023.7mb 60f 61f
8:06 1 5 mph 1023.6mb 60f 61f
8:00 2 3 mph 1023.5mb 59f 61f
7:54 1 3 mph 1023.4mb 59f 62f
7:48 1 2 mph 1023.3mb 59f 61f
7:42  -  1 mph 1023.3mb 59f 62f
7:36  -  1 mph 1023.3mb 59f 60f
7:30  -  1 mph 1023.3mb 60f 59f
7:24  -  1 mph 1023.3mb 60f 58f
7:18  -  2 mph 1023.3mb 60f 57f
7:12 2
mph
1023.2mb 60f 57f
7:06 1 2 mph 1023.1mb 60f 57f
7:00  -  2 mph 1023mb 60f 57f
6:54 1 2 mph 1023mb 60f 57f
6:48 1 2 mph 1022.9mb 60f 57f
6:42 2
mph
1022.8mb 60f 57f
6:36 2
mph
1022.7mb 59f 57f
6:30 1 2 mph 1022.7mb 59f 57f
6:24 2 3 mph 1022.7mb 59f 57f
6:18 2 3 mph 1022.6mb 59f 57f
6:12 3 5 mph 1022.5mb 59f 56f
6:06 3
mph
1022.4mb 60f 56f
6:00 2 3 mph 1022.3mb 60f 57f
5:54 2 5 mph 1022.3mb 60f 57f
5:48 3 5 mph 1022.2mb - 56f
5:42 1 2 mph 1022.2mb - 57f
5:36 1 3 mph 1022.1mb - 56f
5:30 2
mph
1022.1mb 60f 57f
5:24  -  2 mph 1022.1mb 60f 57f
5:18 2 5 mph 1022mb 60f 57f
5:12 5 6 mph 1022mb 60f 57f
5:06 5 6 mph 1021.9mb 59f 57f
5:00 5 6 mph 1021.7mb 60f 57f
4:54 5 6 mph 1021.6mb 60f 56f
4:48 3 7 mph 1021.5mb 60f 56f
4:42 6 7 mph 1021.5mb 60f 56f
4:36 6
mph
1021.4mb 60f 56f
4:30 3 5 mph 1021.4mb 60f 56f
4:24 3 6 mph 1021.4mb 60f 57f
4:18 5 6 mph 1021.3mb 60f 57f
4:12 5 6 mph 1021.2mb 60f 57f
4:06 6
mph
1021.2mb 60f 56f
4:00 6 8 mph 1021.3mb 60f 56f
3:54 6 8 mph 1021.3mb 60f 56f
3:48 5 6 mph 1021.3mb 60f 56f
3:42 3 5 mph 1021.3mb 60f 57f
3:36 3
mph
1021.3mb 60f 57f
3:30 1 2 mph 1021.3mb 60f 57f
3:24 1 2 mph 1021.3mb 60f 57f
3:18 2
mph
1021.3mb 60f 57f
3:12 2
mph
1021.3mb 60f 58f
3:06 1
mph
1021.3mb 60f 58f
3:00 1 2 mph 1021.3mb 60f 58f
2:54 2
mph
1021.3mb 60f 58f
2:48 1 2 mph 1021.3mb 60f 58f
2:42 2
mph
1021.3mb 60f 58f
2:36 1 3 mph 1021.2mb 60f 58f
2:30 2 3 mph 1021.2mb 60f 58f
2:24 1 2 mph 1021.3mb 60f 58f
2:18 2 3 mph 1021.3mb 60f 58f
2:12 2 3 mph 1021.4mb 60f 58f
2:06 2
mph
1021.4mb 60f 58f
2:00  -  2 mph 1021.4mb 60f 58f
1:54 2
mph
1021.4mb 60f 58f
1:48 1 2 mph 1021.4mb 60f 59f
1:42 2 3 mph 1021.4mb 60f 59f
1:36 2 5 mph 1021.3mb 60f 58f
1:30 3 5 mph 1021.4mb 60f 58f
1:24 1 3 mph 1021.4mb 60f 58f
1:18 2 3 mph 1021.3mb 60f 58f
1:12 2
mph
1021.3mb 60f 58f
1:06 2 3 mph 1021.2mb 60f 58f
1:00 3 5 mph 1021.1mb 60f 58f
12:54  -  2 mph 1021mb 60f 58f
12:48 2 3 mph 1021mb 60f 58f
12:42 2 3 mph 1021mb 60f 58f
12:36  -  3 mph 1021.1mb 60f 58f
12:30 2 6 mph 1021mb 60f 58f
12:24 5 6 mph 1021mb 60f 58f
12:18 6 7 mph 1021mb 60f 58f
12:12 3 5 mph 1021mb 60f 58f
12:06 3 5 mph 1021.1mb 60f 58f
12:00 3 5 mph 1021.1mb 60f 58f
Mi 12/07 11:54 2
mph
1021.1mb 60f 58f
11:48  -  1 mph 1021.3mb 60f 59f
11:42  -  1 mph 1021.2mb 60f 59f
11:36 1 2 mph 1021.2mb 60f 59f
11:30 2
mph
1021.3mb 60f 59f
11:24 1
mph
1021.3mb 60f 59f
11:18 1
mph
1021.3mb 60f 59f
11:12  -  1 mph 1021.3mb 60f 59f
11:06 1 2 mph 1021.2mb 60f 59f
11:00 2
mph
1021.1mb 60f 59f
10:54 2
mph
1021.2mb 60f 59f
10:48 1 2 mph 1021.2mb 60f -
10:42 1 2 mph 1021.1mb 60f -
10:36 2
mph
1020.9mb 60f -
10:30  -  2 mph 1021.1mb 60f 58f
10:24 2 3 mph 1021.1mb 60f 58f
10:18 2 3 mph 1021mb 60f 58f
10:12 1 2 mph 1021mb 60f 59f
10:06 1 2 mph 1020.9mb 60f 59f
10:00 2 3 mph 1020.9mb 60f 59f
9:54 3
mph
1020.8mb 60f 58f
9:48 3 5 mph 1020.9mb 60f -
9:42 2 3 mph 1020.8mb 60f -
9:36 1 3 mph 1020.8mb 60f -
9:30 2 3 mph 1020.8mb 60f 59f
9:24 1 2 mph 1020.8mb 60f 59f
9:18  -  3 mph 1020.9mb 60f 59f
9:12 3 5 mph 1020.9mb 60f 59f
9:06 3 6 mph 1020.8mb 60f 59f
9:00 5 6 mph 1020.7mb 60f 60f
8:54 5 6 mph 1020.6mb 60f 60f
8:48 6
mph
1020.6mb 60f 59f
8:42 5 6 mph 1020.7mb 60f 59f
8:36 1 2 mph 1020.5mb 60f 60f
8:30 2 6 mph 1020.4mb 60f 61f
8:24 5 7 mph 1020.3mb 60f 61f
8:18 5 7 mph 1020.3mb 60f 61f
8:12 6 8 mph 1020.4mb 60f 61f
8:06 7 8 mph 1020.4mb 60f 61f
8:00 5 7 mph 1020.4mb 60f 61f
7:54 6 8 mph 1020.5mb 60f 61f
7:48 6 7 mph 1020.5mb 60f 61f
7:42 6 7 mph 1020.4mb 60f 61f
7:36 3 5 mph 1020.3mb 60f 61f
7:30 2 3 mph 1020.3mb 60f 61f
7:24 2 5 mph 1020.4mb 60f 61f
7:18 5
mph
1020.4mb 60f 61f
7:12 5
mph
1020.4mb 60f 61f
7:06 5
mph
1020.4mb 60f 61f
7:00 3 5 mph 1020.4mb 60f 61f
6:54 3 5 mph 1020.4mb 60f 61f
6:48 2 5 mph 1020.2mb 60f 61f
6:42 3 5 mph 1020.3mb 60f 62f
6:36 3 5 mph 1020.1mb 60f 62f
6:30 5 6 mph 1020mb 60f 62f
6:24 3 5 mph 1019.9mb 60f 62f
6:18 5 6 mph 1019.9mb 60f 62f
6:12 5 6 mph 1019.8mb 60f 62f
6:06 5
mph
1019.7mb 60f 62f
6:00 3 5 mph 1019.8mb 60f 62f
5:54 3 5 mph 1019.8mb 60f 62f
5:48 5
mph
1019.9mb 60f 62f
5:42 3 5 mph 1019.8mb 60f 62f
5:36 3 6 mph 1019.7mb 60f 62f
5:30 5 6 mph 1019.7mb 60f 62f
5:24 5
mph
1019.6mb 60f 62f
5:18 2 3 mph 1019.5mb 60f 62f
5:12 2
mph
1019.4mb 60f 62f
5:06 2
mph
1019.4mb 60f 62f
5:00 2
mph
1019.2mb 60f 62f
4:54 1
mph
1019.1mb 60f 62f
4:48  -  1 mph 1018.8mb 60f 62f
4:42  -  1 mph 1018.7mb 60f 63f
4:36  -  1 mph 1018.7mb 60f 64f
4:30  -  1 mph 1018.6mb 60f 64f
4:24  -  1 mph 1018.7mb 60f 65f
4:18  -  1 mph 1018.7mb 60f 65f
4:12  -  1 mph 1018.6mb 60f 66f
4:06 1
mph
1018.8mb 60f 67f
4:00  -  1 mph 1018.7mb 60f 69f
3:54 1
mph
1018.7mb 60f 68f
3:48 1 2 mph 1018.7mb 60f 69f
3:42  -  1 mph 1018.6mb 60f 68f
3:36 1 2 mph 1018.7mb 60f 67f
3:30 2 3 mph 1018.8mb 60f 65f
3:24 2 3 mph 1018.9mb 60f 65f
3:18 2 5 mph 1018.9mb 60f 66f
3:12 3 5 mph 1019.2mb 60f 65f
3:06 3 5 mph 1019.1mb 60f 65f
3:00 3 6 mph 1019.1mb 60f 64f
2:54 3 6 mph 1019.1mb 60f 64f
2:48 5 6 mph 1019.1mb 60f 64f
2:42 6 7 mph 1019mb 60f 64f
2:36 6 7 mph 1019mb 60f 64f
2:30 5 6 mph 1018.9mb 60f 63f
2:24 5 6 mph 1018.7mb 60f 63f
2:18 5 6 mph 1018.7mb 60f 63f
2:12 5 6 mph 1018.6mb 60f 63f
2:06 5 6 mph 1018.6mb 60f 63f
2:00 5 6 mph 1018.6mb 60f 63f
1:54 5 6 mph 1018.5mb 60f 62f
1:48 5
mph
1018.5mb 60f 62f
1:42 5 6 mph 1018.4mb 60f 62f
1:36 5 6 mph 1018.5mb 60f 62f
1:30 5 6 mph 1018.5mb 60f 62f
1:24 5 6 mph 1018.5mb 60f 62f
1:18 6
mph
1018.5mb 60f 62f
1:12 6 7 mph 1018.6mb 60f 62f
1:06 7
mph
1018.6mb 60f 62f
1:00 6 8 mph 1018.7mb 60f 62f
12:54 6 8 mph 1018.8mb 60f 62f
12:48 7 9 mph 1018.8mb 60f 62f
12:42 7 9 mph 1018.9mb 60f 62f
12:36 7 10 mph 1018.9mb 60f 62f
12:30 9 11 mph 1018.9mb 60f 62f
12:24 10 13 mph 1018.8mb 60f 62f
12:18 9 14 mph 1018.7mb 60f 62f
12:12 11 13 mph 1018.6mb 60f 62f
12:06 13 16 mph 1018.6mb 60f 62f
12:00 14 16 mph 1018.6mb 60f 62f